PWSweather.com
Personal Weather Stations
Station Observations

SkegnessGB

Lat: 53.147585, Lon: 0.345774

Elevation: 18

Station Type: Fine Offset WH3080

http://www.skegnessweather.info/

High Low Average
Temperature 50.2°F10.1°C 38.7°F3.7°C 44.8°F7.1°C
Dew Point 42.2°F5.7°C 33.0°F0.6°C 38.7°F3.7°C
Winds 12.6 mph 20.3 kmh Calm Calm 5.0 mph E8.0 kmh E
Wind Gusts 15.0 mph24.1 kmh -- 7.0 mph11.3 kmh
Humidity 92% 66% 79%
Pressure 29.80 in1009.1 mb 29.42 in996.3 mb -
Precipitation 0.43 in10.9 mm - -
Hour Temp Dew Point Humidity Winds Wind Gusts Pressure Precip Precip Rate Daily Precip Total
12:00 AM 42.3°F5.7°C 39.8°F4.3°C 91% 2.1 mph SSW3.4 kmh SSW 2.5 mph4.0 kmh 29.42 in996.3 mb 0.00 in0.0 mm 0.00 in0.0 mm 0.00 in0.0 mm
12:10 AM 42.3°F5.7°C 39.8°F4.3°C 91% 1.2 mph WSW1.9 kmh WSW 2.5 mph4.0 kmh 29.43 in996.6 mb 0.00 in0.0 mm 0.00 in0.0 mm 0.00 in0.0 mm
12:20 AM 42.3°F5.7°C 39.8°F4.3°C 91% 2.2 mph SSW3.5 kmh SSW 3.4 mph5.5 kmh 29.43 in996.6 mb 0.00 in0.0 mm 0.00 in0.0 mm 0.00 in0.0 mm
12:30 AM 42.1°F5.6°C 39.6°F4.2°C 91% 2.7 mph WSW4.3 kmh WSW 3.4 mph5.5 kmh 29.43 in996.6 mb 0.00 in0.0 mm 0.00 in0.0 mm 0.00 in0.0 mm
12:40 AM 42.1°F5.6°C 39.6°F4.2°C 91% 2.5 mph SW4.0 kmh SW 3.4 mph5.5 kmh 29.43 in996.6 mb 0.00 in0.0 mm 0.00 in0.0 mm 0.00 in0.0 mm
12:50 AM 42.1°F5.6°C 39.6°F4.2°C 91% 3.1 mph SSW5.0 kmh SSW 4.2 mph6.8 kmh 29.43 in996.6 mb 0.00 in0.0 mm 0.00 in0.0 mm 0.00 in0.0 mm
01:00 AM 42.1°F5.6°C 39.6°F4.2°C 91% 2.0 mph SSW3.2 kmh SSW 2.5 mph4.0 kmh 29.43 in996.6 mb 0.00 in0.0 mm 0.00 in0.0 mm 0.00 in0.0 mm
01:10 AM 42.1°F5.6°C 39.6°F4.2°C 91% 1.3 mph S2.1 kmh S 1.7 mph2.7 kmh 29.44 in997.0 mb 0.00 in0.0 mm 0.00 in0.0 mm 0.00 in0.0 mm
01:20 AM 42.3°F5.7°C 39.8°F4.3°C 91% 1.1 mph S1.8 kmh S 3.4 mph5.5 kmh 29.45 in997.3 mb 0.00 in0.0 mm 0.00 in0.0 mm 0.00 in0.0 mm
01:30 AM 42.3°F5.7°C 39.8°F4.3°C 91% 1.0 mph SSE1.6 kmh SSE 1.7 mph2.7 kmh 29.45 in997.3 mb 0.00 in0.0 mm 0.00 in0.0 mm 0.00 in0.0 mm
01:40 AM 42.3°F5.7°C 39.8°F4.3°C 91% 0.8 mph SSE1.3 kmh SSE 1.7 mph2.7 kmh 29.45 in997.3 mb 0.00 in0.0 mm 0.00 in0.0 mm 0.00 in0.0 mm
01:50 AM 42.3°F5.7°C 39.8°F4.3°C 91% 0.8 mph S1.3 kmh S 1.7 mph2.7 kmh 29.45 in997.3 mb 0.00 in0.0 mm 0.00 in0.0 mm 0.00 in0.0 mm
02:00 AM 42.4°F5.8°C 40.0°F4.4°C 91% 0.4 mph SSW0.6 kmh SSW 1.7 mph2.7 kmh 29.46 in997.6 mb 0.00 in0.0 mm 0.00 in0.0 mm 0.00 in0.0 mm
02:10 AM 42.4°F5.8°C 40.0°F4.4°C 91% Calm Calm 0.7 mph1.1 kmh 29.46 in997.6 mb 0.00 in0.0 mm 0.00 in0.0 mm 0.00 in0.0 mm
02:20 AM 42.4°F5.8°C 40.0°F4.4°C 91% Calm Calm 0.7 mph1.1 kmh 29.46 in997.6 mb 0.00 in0.0 mm 0.00 in0.0 mm 0.00 in0.0 mm
02:30 AM 42.4°F5.8°C 40.0°F4.4°C 91% Calm Calm 0.7 mph1.1 kmh 29.47 in998.0 mb 0.00 in0.0 mm 0.00 in0.0 mm 0.00 in0.0 mm
02:40 AM 42.4°F5.8°C 40.0°F4.4°C 91% Calm Calm 0.7 mph1.1 kmh 29.47 in998.0 mb 0.00 in0.0 mm 0.00 in0.0 mm 0.00 in0.0 mm
02:50 AM 42.4°F5.8°C 40.0°F4.4°C 91% 0.1 mph S0.2 kmh S 1.7 mph2.7 kmh 29.48 in998.3 mb 0.00 in0.0 mm 0.00 in0.0 mm 0.00 in0.0 mm
03:00 AM 42.4°F5.8°C 40.0°F4.4°C 91% 0.4 mph SSW0.6 kmh SSW 1.7 mph2.7 kmh 29.48 in998.3 mb 0.00 in0.0 mm 0.00 in0.0 mm 0.00 in0.0 mm
03:10 AM 42.4°F5.8°C 40.0°F4.4°C 91% Calm Calm 0.7 mph1.1 kmh 29.48 in998.3 mb 0.00 in0.0 mm 0.00 in0.0 mm 0.00 in0.0 mm
03:20 AM 42.4°F5.8°C 40.0°F4.4°C 91% 0.5 mph SSW0.8 kmh SSW 1.7 mph2.7 kmh 29.48 in998.3 mb 0.01 in0.3 mm 0.06 in1.5 mm 0.01 in0.3 mm
03:30 AM 42.4°F5.8°C 40.0°F4.4°C 91% 0.6 mph SW1.0 kmh SW 1.7 mph2.7 kmh 29.49 in998.6 mb 0.01 in0.3 mm 0.00 in0.0 mm 0.01 in0.3 mm
03:40 AM 42.4°F5.8°C 40.0°F4.4°C 91% Calm Calm 1.7 mph2.7 kmh 29.49 in998.6 mb 0.02 in0.5 mm 0.06 in1.5 mm 0.02 in0.5 mm
03:50 AM 42.4°F5.8°C 40.0°F4.4°C 91% Calm Calm 1.7 mph2.7 kmh 29.50 in999.0 mb 0.02 in0.5 mm 0.00 in0.0 mm 0.02 in0.5 mm
04:00 AM 42.6°F5.9°C 40.2°F4.6°C 91% 0.3 mph WSW0.5 kmh WSW 1.7 mph2.7 kmh 29.50 in999.0 mb 0.02 in0.5 mm 0.00 in0.0 mm 0.02 in0.5 mm
04:10 AM 42.6°F5.9°C 40.2°F4.6°C 91% Calm Calm 1.7 mph2.7 kmh 29.51 in999.3 mb 0.04 in1.0 mm 0.12 in3.0 mm 0.04 in1.0 mm
04:20 AM 42.8°F6.0°C 40.4°F4.7°C 91% Calm Calm -- 29.51 in999.3 mb 0.04 in1.0 mm 0.00 in0.0 mm 0.05 in1.3 mm
04:30 AM 42.8°F6.0°C 40.4°F4.7°C 91% 0.6 mph NNE1.0 kmh NNE 1.7 mph2.7 kmh 29.52 in999.7 mb 0.05 in1.3 mm 0.06 in1.5 mm 0.06 in1.5 mm
04:40 AM 43.2°F6.2°C 41.0°F5.0°C 92% 1.8 mph NNE2.9 kmh NNE 2.5 mph4.0 kmh 29.53 in1000.0 mb 0.05 in1.3 mm 0.00 in0.0 mm 0.07 in1.8 mm
04:50 AM 43.3°F6.3°C 41.2°F5.1°C 92% 2.0 mph N3.2 kmh N 4.9 mph7.9 kmh 29.53 in1000.0 mb 0.06 in1.5 mm 0.06 in1.5 mm 0.08 in2.0 mm
05:00 AM 43.2°F6.2°C 41.0°F5.0°C 92% 4.9 mph N7.9 kmh N 4.9 mph7.9 kmh 29.54 in1000.3 mb 0.06 in1.5 mm 0.00 in0.0 mm 0.09 in2.3 mm
05:10 AM 43.3°F6.3°C 41.2°F5.1°C 92% 2.9 mph NE4.7 kmh NE 4.2 mph6.8 kmh 29.54 in1000.3 mb 0.09 in2.3 mm 0.18 in4.6 mm 0.13 in3.3 mm
05:20 AM 43.5°F6.4°C 41.4°F5.2°C 92% 3.3 mph NE5.3 kmh NE 5.9 mph9.5 kmh 29.55 in1000.7 mb 0.11 in2.8 mm 0.12 in3.0 mm 0.15 in3.8 mm
05:30 AM 43.7°F6.5°C 41.5°F5.3°C 92% 2.2 mph NNE3.5 kmh NNE 3.4 mph5.5 kmh 29.55 in1000.7 mb 0.12 in3.0 mm 0.06 in1.5 mm 0.18 in4.6 mm
05:40 AM 44.1°F6.7°C 41.9°F5.5°C 92% 6.0 mph NNE9.7 kmh NNE 7.6 mph12.2 kmh 29.55 in1000.7 mb 0.12 in3.0 mm 0.00 in0.0 mm 0.19 in4.8 mm
05:50 AM 44.4°F6.9°C 42.2°F5.7°C 92% 5.8 mph N9.3 kmh N 7.6 mph12.2 kmh 29.55 in1000.7 mb 0.13 in3.3 mm 0.06 in1.5 mm 0.21 in5.3 mm
06:00 AM 44.4°F6.9°C 42.2°F5.7°C 92% 5.9 mph NNE9.5 kmh NNE 6.6 mph10.6 kmh 29.55 in1000.7 mb 0.14 in3.6 mm 0.01 in0.3 mm 0.24 in6.1 mm
06:10 AM 44.2°F6.8°C 42.1°F5.6°C 92% 5.2 mph NE8.4 kmh NE 5.9 mph9.5 kmh 29.56 in1001.0 mb 0.12 in3.0 mm 0.00 in0.0 mm 0.25 in6.4 mm
06:20 AM 44.4°F6.9°C 42.2°F5.7°C 92% 5.5 mph N8.9 kmh N 8.4 mph13.5 kmh 29.56 in1001.0 mb 0.09 in2.3 mm 0.00 in0.0 mm 0.25 in6.4 mm
06:30 AM 44.6°F7.0°C 41.3°F5.2°C 88% 6.3 mph NE10.1 kmh NE 6.6 mph10.6 kmh 29.56 in1001.0 mb 0.07 in1.8 mm 0.00 in0.0 mm 0.25 in6.4 mm
06:40 AM 44.8°F7.1°C 41.1°F5.1°C 87% 8.1 mph N13.0 kmh N 10.1 mph16.3 kmh 29.57 in1001.4 mb 0.06 in1.5 mm 0.00 in0.0 mm 0.25 in6.4 mm
06:50 AM 45.5°F7.5°C 41.3°F5.2°C 85% 10.7 mph N17.2 kmh N 11.8 mph19.0 kmh 29.57 in1001.4 mb 0.04 in1.0 mm 0.00 in0.0 mm 0.25 in6.4 mm
07:00 AM 45.5°F7.5°C 40.3°F4.6°C 82% 8.2 mph NNE13.2 kmh NNE 10.1 mph16.3 kmh 29.57 in1001.4 mb 0.01 in0.3 mm 0.00 in0.0 mm 0.25 in6.4 mm
07:10 AM 45.7°F7.6°C 38.9°F3.8°C 77% 5.6 mph N9.0 kmh N 8.4 mph13.5 kmh 29.58 in1001.7 mb 0.00 in0.0 mm 0.00 in0.0 mm 0.25 in6.4 mm
07:20 AM 45.9°F7.7°C 37.7°F3.2°C 73% 10.6 mph NNE17.1 kmh NNE 10.8 mph17.4 kmh 29.59 in1002.0 mb 0.00 in0.0 mm 0.00 in0.0 mm 0.25 in6.4 mm
07:30 AM 46.2°F7.9°C 38.0°F3.3°C 73% 8.5 mph NNE13.7 kmh NNE 9.1 mph14.6 kmh 29.59 in1002.0 mb 0.00 in0.0 mm 0.00 in0.0 mm 0.25 in6.4 mm
07:40 AM 46.0°F7.8°C 38.6°F3.7°C 75% 8.8 mph NNE14.2 kmh NNE 8.4 mph13.5 kmh 29.59 in1002.0 mb 0.00 in0.0 mm 0.00 in0.0 mm 0.25 in6.4 mm
07:50 AM 46.0°F7.8°C 39.2°F4.0°C 77% 8.0 mph NNE12.9 kmh NNE 9.1 mph14.6 kmh 29.60 in1002.4 mb 0.00 in0.0 mm 0.00 in0.0 mm 0.25 in6.4 mm
08:00 AM 46.4°F8.0°C 39.2°F4.0°C 76% 9.9 mph NE15.9 kmh NE 10.1 mph16.3 kmh 29.60 in1002.4 mb 0.00 in0.0 mm 0.00 in0.0 mm 0.25 in6.4 mm
08:10 AM 46.6°F8.1°C 39.4°F4.1°C 76% 9.8 mph NE15.8 kmh NE 10.8 mph17.4 kmh 29.60 in1002.4 mb 0.00 in0.0 mm 0.00 in0.0 mm 0.25 in6.4 mm
08:20 AM 46.8°F8.2°C 39.6°F4.2°C 76% 8.2 mph ENE13.2 kmh ENE 9.1 mph14.6 kmh 29.60 in1002.4 mb 0.00 in0.0 mm 0.00 in0.0 mm 0.25 in6.4 mm
08:30 AM 47.1°F8.4°C 39.6°F4.2°C 75% 8.4 mph NE13.5 kmh NE 9.1 mph14.6 kmh 29.61 in1002.7 mb 0.00 in0.0 mm 0.00 in0.0 mm 0.25 in6.4 mm
08:40 AM 47.3°F8.5°C 39.4°F4.1°C 74% 9.0 mph NNE14.5 kmh NNE 10.1 mph16.3 kmh 29.61 in1002.7 mb 0.00 in0.0 mm 0.00 in0.0 mm 0.25 in6.4 mm
08:50 AM 47.3°F8.5°C 39.4°F4.1°C 74% 9.4 mph N15.1 kmh N 10.1 mph16.3 kmh 29.61 in1002.7 mb 0.00 in0.0 mm 0.00 in0.0 mm 0.25 in6.4 mm
09:00 AM 47.3°F8.5°C 39.4°F4.1°C 74% 7.3 mph NNE11.7 kmh NNE 9.1 mph14.6 kmh 29.62 in1003.0 mb 0.00 in0.0 mm 0.00 in0.0 mm 0.25 in6.4 mm
09:10 AM 47.1°F8.4°C 39.6°F4.2°C 75% 7.7 mph N12.4 kmh N 8.4 mph13.5 kmh 29.63 in1003.4 mb 0.00 in0.0 mm 0.00 in0.0 mm 0.25 in6.4 mm
09:20 AM 46.8°F8.2°C 39.3°F4.1°C 75% 3.7 mph NNE6.0 kmh NNE 4.9 mph7.9 kmh 29.62 in1003.0 mb 0.00 in0.0 mm 0.00 in0.0 mm 0.25 in6.4 mm
09:30 AM 46.4°F8.0°C 39.2°F4.0°C 76% 4.1 mph SE6.6 kmh SE 4.9 mph7.9 kmh 29.63 in1003.4 mb 0.00 in0.0 mm 0.00 in0.0 mm 0.25 in6.4 mm
09:40 AM 46.6°F8.1°C 39.8°F4.3°C 77% 3.9 mph E6.3 kmh E 4.9 mph7.9 kmh 29.63 in1003.4 mb 0.00 in0.0 mm 0.00 in0.0 mm 0.25 in6.4 mm
09:50 AM 46.6°F8.1°C 39.8°F4.3°C 77% 3.2 mph E5.1 kmh E 4.9 mph7.9 kmh 29.63 in1003.4 mb 0.00 in0.0 mm 0.00 in0.0 mm 0.25 in6.4 mm
10:00 AM 47.7°F8.7°C 41.1°F5.1°C 78% 3.9 mph ENE6.3 kmh ENE 6.6 mph10.6 kmh 29.63 in1003.4 mb 0.00 in0.0 mm 0.00 in0.0 mm 0.25 in6.4 mm
10:10 AM 48.2°F9.0°C 41.0°F5.0°C 76% 5.9 mph NNE9.5 kmh NNE 8.4 mph13.5 kmh 29.64 in1003.7 mb 0.00 in0.0 mm 0.00 in0.0 mm 0.25 in6.4 mm
10:20 AM 48.0°F8.9°C 40.8°F4.9°C 76% 6.2 mph E10.0 kmh E 7.6 mph12.2 kmh 29.65 in1004.1 mb 0.00 in0.0 mm 0.00 in0.0 mm 0.25 in6.4 mm
10:30 AM 47.8°F8.8°C 40.6°F4.8°C 76% 6.5 mph NE10.5 kmh NE 8.4 mph13.5 kmh 29.65 in1004.1 mb 0.00 in0.0 mm 0.00 in0.0 mm 0.25 in6.4 mm
10:40 AM 48.2°F9.0°C 41.0°F5.0°C 76% 6.0 mph ENE9.7 kmh ENE 8.4 mph13.5 kmh 29.65 in1004.1 mb 0.00 in0.0 mm 0.00 in0.0 mm 0.25 in6.4 mm
10:50 AM 48.0°F8.9°C 40.8°F4.9°C 76% 5.1 mph NE8.2 kmh NE 6.6 mph10.6 kmh 29.65 in1004.1 mb 0.00 in0.0 mm 0.00 in0.0 mm 0.25 in6.4 mm
11:00 AM 47.8°F8.8°C 40.6°F4.8°C 76% 5.4 mph E8.7 kmh E 10.8 mph17.4 kmh 29.65 in1004.1 mb 0.00 in0.0 mm 0.00 in0.0 mm 0.25 in6.4 mm
11:10 AM 48.9°F9.4°C 41.7°F5.4°C 76% 8.2 mph E13.2 kmh E 10.8 mph17.4 kmh 29.65 in1004.1 mb 0.00 in0.0 mm 0.00 in0.0 mm 0.25 in6.4 mm
11:20 AM 49.6°F9.8°C 41.7°F5.4°C 74% 7.6 mph ENE12.2 kmh ENE 10.8 mph17.4 kmh 29.65 in1004.1 mb 0.00 in0.0 mm 0.00 in0.0 mm 0.25 in6.4 mm
11:30 AM 50.0°F10.0°C 41.7°F5.4°C 73% 6.1 mph NE9.8 kmh NE 8.4 mph13.5 kmh 29.65 in1004.1 mb 0.00 in0.0 mm 0.00 in0.0 mm 0.25 in6.4 mm
11:40 AM 50.2°F10.1°C 41.9°F5.5°C 73% 5.1 mph ENE8.2 kmh ENE 8.4 mph13.5 kmh 29.65 in1004.1 mb 0.00 in0.0 mm 0.00 in0.0 mm 0.25 in6.4 mm
11:50 AM 49.6°F9.8°C 41.0°F5.0°C 72% 7.5 mph NE12.1 kmh NE 8.4 mph13.5 kmh 29.66 in1004.4 mb 0.00 in0.0 mm 0.00 in0.0 mm 0.25 in6.4 mm
12:00 PM 49.6°F9.8°C 41.0°F5.0°C 72% 6.3 mph N10.1 kmh N 8.4 mph13.5 kmh 29.66 in1004.4 mb 0.00 in0.0 mm 0.00 in0.0 mm 0.25 in6.4 mm
12:10 PM 50.0°F10.0°C 41.3°F5.2°C 72% 7.0 mph N11.3 kmh N 10.1 mph16.3 kmh 29.66 in1004.4 mb 0.00 in0.0 mm 0.00 in0.0 mm 0.25 in6.4 mm
12:20 PM 49.6°F9.8°C 41.0°F5.0°C 72% 6.4 mph ENE10.3 kmh ENE 9.1 mph14.6 kmh 29.66 in1004.4 mb 0.00 in0.0 mm 0.00 in0.0 mm 0.25 in6.4 mm
12:30 PM 49.3°F9.6°C 40.6°F4.8°C 72% 5.7 mph S9.2 kmh S 6.6 mph10.6 kmh 29.67 in1004.7 mb 0.00 in0.0 mm 0.00 in0.0 mm 0.25 in6.4 mm
12:40 PM 49.3°F9.6°C 40.6°F4.8°C 72% 7.9 mph ESE12.7 kmh ESE 10.1 mph16.3 kmh 29.67 in1004.7 mb 0.00 in0.0 mm 0.00 in0.0 mm 0.25 in6.4 mm
12:50 PM 48.7°F9.3°C 40.5°F4.7°C 73% 7.4 mph E11.9 kmh E 12.5 mph20.1 kmh 29.68 in1005.1 mb 0.00 in0.0 mm 0.00 in0.0 mm 0.25 in6.4 mm
01:00 PM 47.8°F8.8°C 40.3°F4.6°C 75% 5.0 mph NNE8.0 kmh NNE 10.1 mph16.3 kmh 29.67 in1004.7 mb 0.01 in0.3 mm 0.01 in0.3 mm 0.26 in6.6 mm
01:10 PM 46.9°F8.3°C 40.1°F4.5°C 77% 4.4 mph SW7.1 kmh SW 5.9 mph9.5 kmh 29.67 in1004.7 mb 0.04 in1.0 mm 0.18 in4.6 mm 0.28 in7.1 mm
01:20 PM 46.4°F8.0°C 40.2°F4.6°C 79% 4.8 mph SE7.7 kmh SE 5.9 mph9.5 kmh 29.68 in1005.1 mb 0.04 in1.0 mm 0.00 in0.0 mm 0.28 in7.1 mm
01:30 PM 46.0°F7.8°C 40.2°F4.6°C 80% 2.7 mph NE4.3 kmh NE 5.9 mph9.5 kmh 29.68 in1005.1 mb 0.06 in1.5 mm 0.12 in3.0 mm 0.31 in7.9 mm
01:40 PM 45.7°F7.6°C 39.9°F4.4°C 80% 1.8 mph NNE2.9 kmh NNE 3.4 mph5.5 kmh 29.68 in1005.1 mb 0.08 in2.0 mm 0.12 in3.0 mm 0.33 in8.4 mm
01:50 PM 45.1°F7.3°C 39.7°F4.3°C 81% 5.2 mph NE8.4 kmh NE 10.8 mph17.4 kmh 29.68 in1005.1 mb 0.14 in3.6 mm 0.36 in9.1 mm 0.39 in9.9 mm
02:00 PM 45.0°F7.2°C 39.5°F4.2°C 81% 9.3 mph NNE15.0 kmh NNE 10.8 mph17.4 kmh 29.68 in1005.1 mb 0.13 in3.3 mm 0.00 in0.0 mm 0.39 in9.9 mm
02:10 PM 45.1°F7.3°C 40.0°F4.4°C 82% 6.7 mph N10.8 kmh N 8.4 mph13.5 kmh 29.69 in1005.4 mb 0.12 in3.0 mm 0.00 in0.0 mm 0.40 in10.2 mm
02:20 PM 45.1°F7.3°C 40.3°F4.6°C 83% 3.4 mph NE5.5 kmh NE 4.2 mph6.8 kmh 29.69 in1005.4 mb 0.12 in3.0 mm 0.00 in0.0 mm 0.40 in10.2 mm
02:30 PM 45.3°F7.4°C 40.5°F4.7°C 83% 7.0 mph N11.3 kmh N 13.3 mph21.4 kmh 29.69 in1005.4 mb 0.09 in2.3 mm 0.00 in0.0 mm 0.40 in10.2 mm
02:40 PM 45.7°F7.6°C 40.5°F4.7°C 82% 12.6 mph N20.3 kmh N 13.3 mph21.4 kmh 29.70 in1005.8 mb 0.07 in1.8 mm 0.00 in0.0 mm 0.41 in10.4 mm
02:50 PM 46.2°F7.9°C 39.1°F3.9°C 76% 9.8 mph NE15.8 kmh NE 13.3 mph21.4 kmh 29.70 in1005.8 mb 0.02 in0.5 mm 0.00 in0.0 mm 0.41 in10.4 mm
03:00 PM 46.6°F8.1°C 38.4°F3.6°C 73% 9.7 mph NNE15.6 kmh NNE 10.8 mph17.4 kmh 29.70 in1005.8 mb 0.02 in0.5 mm 0.00 in0.0 mm 0.41 in10.4 mm
03:10 PM 46.4°F8.0°C 39.2°F4.0°C 76% 11.2 mph N18.0 kmh N 10.8 mph17.4 kmh 29.71 in1006.1 mb 0.01 in0.3 mm 0.00 in0.0 mm 0.41 in10.4 mm
03:20 PM 46.2°F7.9°C 39.4°F4.1°C 77% 9.0 mph NNE14.5 kmh NNE 11.8 mph19.0 kmh 29.71 in1006.1 mb 0.01 in0.3 mm 0.00 in0.0 mm 0.41 in10.4 mm
03:30 PM 46.2°F7.9°C 39.1°F3.9°C 76% 9.4 mph NE15.1 kmh NE 13.3 mph21.4 kmh 29.71 in1006.1 mb 0.01 in0.3 mm 0.00 in0.0 mm 0.41 in10.4 mm
03:40 PM 45.9°F7.7°C 38.7°F3.7°C 76% 8.4 mph ENE13.5 kmh ENE 9.1 mph14.6 kmh 29.72 in1006.4 mb 0.00 in0.0 mm 0.00 in0.0 mm 0.41 in10.4 mm
03:50 PM 45.7°F7.6°C 39.2°F4.0°C 78% 9.3 mph NNE15.0 kmh NNE 10.1 mph16.3 kmh 29.72 in1006.4 mb 0.00 in0.0 mm 0.00 in0.0 mm 0.41 in10.4 mm
04:00 PM 45.5°F7.5°C 39.0°F3.9°C 78% 7.6 mph NE12.2 kmh NE 8.4 mph13.5 kmh 29.72 in1006.4 mb 0.01 in0.3 mm 0.01 in0.3 mm 0.43 in10.9 mm
04:10 PM 45.7°F7.6°C 39.5°F4.2°C 79% 11.6 mph NNE18.7 kmh NNE 12.5 mph20.1 kmh 29.72 in1006.4 mb 0.01 in0.3 mm 0.00 in0.0 mm 0.43 in10.9 mm
04:20 PM 45.9°F7.7°C 39.1°F3.9°C 77% 10.1 mph NE16.3 kmh NE 10.8 mph17.4 kmh 29.73 in1006.8 mb 0.01 in0.3 mm 0.00 in0.0 mm 0.43 in10.9 mm
04:30 PM 45.9°F7.7°C 38.7°F3.7°C 76% 9.6 mph NE15.4 kmh NE 10.8 mph17.4 kmh 29.73 in1006.8 mb 0.01 in0.3 mm 0.00 in0.0 mm 0.43 in10.9 mm
04:40 PM 45.7°F7.6°C 38.2°F3.4°C 75% 10.7 mph NE17.2 kmh NE 14.3 mph23.0 kmh 29.73 in1006.8 mb 0.01 in0.3 mm 0.00 in0.0 mm 0.43 in10.9 mm
04:50 PM 45.9°F7.7°C 37.7°F3.2°C 73% 9.8 mph N15.8 kmh N 11.8 mph19.0 kmh 29.73 in1006.8 mb 0.01 in0.3 mm 0.00 in0.0 mm 0.43 in10.9 mm
05:00 PM 45.7°F7.6°C 37.2°F2.9°C 72% 9.4 mph NE15.1 kmh NE 10.8 mph17.4 kmh 29.74 in1007.1 mb 0.00 in0.0 mm 0.00 in0.0 mm 0.43 in10.9 mm
05:10 PM 45.7°F7.6°C 37.2°F2.9°C 72% 11.1 mph ENE17.9 kmh ENE 12.5 mph20.1 kmh 29.74 in1007.1 mb 0.00 in0.0 mm 0.00 in0.0 mm 0.43 in10.9 mm
05:20 PM 45.7°F7.6°C 37.2°F2.9°C 72% 7.6 mph NNE12.2 kmh NNE 8.4 mph13.5 kmh 29.74 in1007.1 mb 0.00 in0.0 mm 0.00 in0.0 mm 0.43 in10.9 mm
05:30 PM 45.5°F7.5°C 37.0°F2.8°C 72% 9.3 mph NE15.0 kmh NE 12.5 mph20.1 kmh 29.75 in1007.5 mb 0.00 in0.0 mm 0.00 in0.0 mm 0.43 in10.9 mm
05:40 PM 45.5°F7.5°C 36.6°F2.6°C 71% 9.1 mph NNE14.6 kmh NNE 9.1 mph14.6 kmh 29.75 in1007.5 mb 0.00 in0.0 mm 0.00 in0.0 mm 0.43 in10.9 mm
05:50 PM 45.5°F7.5°C 36.6°F2.6°C 71% 7.4 mph NE11.9 kmh NE 9.1 mph14.6 kmh 29.75 in1007.5 mb 0.00 in0.0 mm 0.00 in0.0 mm 0.43 in10.9 mm
06:00 PM 45.5°F7.5°C 36.6°F2.6°C 71% 6.3 mph NE10.1 kmh NE 8.4 mph13.5 kmh 29.75 in1007.5 mb 0.00 in0.0 mm 0.00 in0.0 mm 0.43 in10.9 mm
06:10 PM 45.5°F7.5°C 36.6°F2.6°C 71% 5.4 mph NE8.7 kmh NE 8.4 mph13.5 kmh 29.76 in1007.8 mb 0.00 in0.0 mm 0.00 in0.0 mm 0.43 in10.9 mm
06:20 PM 45.5°F7.5°C 36.6°F2.6°C 71% 8.3 mph NNE13.4 kmh NNE 13.3 mph21.4 kmh 29.76 in1007.8 mb 0.00 in0.0 mm 0.00 in0.0 mm 0.43 in10.9 mm
06:30 PM 45.5°F7.5°C 36.3°F2.4°C 70% 9.8 mph NE15.8 kmh NE 15.0 mph24.1 kmh 29.77 in1008.1 mb 0.00 in0.0 mm 0.00 in0.0 mm 0.43 in10.9 mm
06:40 PM 45.5°F7.5°C 35.5°F1.9°C 68% 7.9 mph N12.7 kmh N 15.0 mph24.1 kmh 29.76 in1007.8 mb 0.00 in0.0 mm 0.00 in0.0 mm 0.43 in10.9 mm
06:50 PM 45.3°F7.4°C 34.6°F1.4°C 66% 10.1 mph NNE16.3 kmh NNE 11.8 mph19.0 kmh 29.76 in1007.8 mb 0.00 in0.0 mm 0.00 in0.0 mm 0.43 in10.9 mm
07:00 PM 45.3°F7.4°C 34.6°F1.4°C 66% 8.2 mph NNE13.2 kmh NNE 10.8 mph17.4 kmh 29.77 in1008.1 mb 0.00 in0.0 mm 0.00 in0.0 mm 0.43 in10.9 mm
07:10 PM 45.3°F7.4°C 35.4°F1.9°C 68% 8.4 mph E13.5 kmh E 7.6 mph12.2 kmh 29.78 in1008.5 mb 0.00 in0.0 mm 0.00 in0.0 mm 0.43 in10.9 mm
07:20 PM 45.1°F7.3°C 35.6°F2.0°C 69% 6.1 mph NE9.8 kmh NE 7.6 mph12.2 kmh 29.77 in1008.1 mb 0.00 in0.0 mm 0.00 in0.0 mm 0.43 in10.9 mm
07:30 PM 44.8°F7.1°C 34.9°F1.6°C 68% 5.1 mph N8.2 kmh N 6.6 mph10.6 kmh 29.77 in1008.1 mb 0.00 in0.0 mm 0.00 in0.0 mm 0.43 in10.9 mm
07:40 PM 44.8°F7.1°C 35.2°F1.8°C 69% 7.3 mph NE11.7 kmh NE 8.4 mph13.5 kmh 29.78 in1008.5 mb 0.00 in0.0 mm 0.00 in0.0 mm 0.43 in10.9 mm
07:50 PM 44.8°F7.1°C 35.2°F1.8°C 69% 6.9 mph NNE11.1 kmh NNE 8.4 mph13.5 kmh 29.78 in1008.5 mb 0.00 in0.0 mm 0.00 in0.0 mm 0.43 in10.9 mm
08:00 PM 44.8°F7.1°C 34.9°F1.6°C 68% 6.7 mph E10.8 kmh E 10.8 mph17.4 kmh 29.78 in1008.5 mb 0.00 in0.0 mm 0.00 in0.0 mm 0.43 in10.9 mm
08:10 PM 44.6°F7.0°C 34.3°F1.3°C 67% 7.0 mph NNE11.3 kmh NNE 9.1 mph14.6 kmh 29.78 in1008.5 mb 0.00 in0.0 mm 0.00 in0.0 mm 0.43 in10.9 mm
08:20 PM 44.6°F7.0°C 34.7°F1.5°C 68% 5.9 mph NE9.5 kmh NE 8.4 mph13.5 kmh 29.78 in1008.5 mb 0.00 in0.0 mm 0.00 in0.0 mm 0.43 in10.9 mm
08:30 PM 44.6°F7.0°C 34.7°F1.5°C 68% 6.5 mph N10.5 kmh N 7.6 mph12.2 kmh 29.78 in1008.5 mb 0.00 in0.0 mm 0.00 in0.0 mm 0.43 in10.9 mm
08:40 PM 44.4°F6.9°C 35.6°F2.0°C 71% 8.6 mph NE13.8 kmh NE 11.8 mph19.0 kmh 29.78 in1008.5 mb 0.00 in0.0 mm 0.00 in0.0 mm 0.43 in10.9 mm
08:50 PM 44.4°F6.9°C 35.6°F2.0°C 71% 8.6 mph NE13.8 kmh NE 8.4 mph13.5 kmh 29.78 in1008.5 mb 0.00 in0.0 mm 0.00 in0.0 mm 0.43 in10.9 mm
09:00 PM 44.4°F6.9°C 35.6°F2.0°C 71% 8.4 mph NE13.5 kmh NE 9.1 mph14.6 kmh 29.79 in1008.8 mb 0.00 in0.0 mm 0.00 in0.0 mm 0.43 in10.9 mm
09:10 PM 44.1°F6.7°C 35.3°F1.8°C 71% 8.9 mph NE14.3 kmh NE 10.1 mph16.3 kmh 29.78 in1008.5 mb 0.00 in0.0 mm 0.00 in0.0 mm 0.43 in10.9 mm
09:20 PM 44.1°F6.7°C 35.3°F1.8°C 71% 7.8 mph N12.6 kmh N 7.6 mph12.2 kmh 29.78 in1008.5 mb 0.00 in0.0 mm 0.00 in0.0 mm 0.43 in10.9 mm
09:30 PM 44.2°F6.8°C 35.4°F1.9°C 71% 8.6 mph NE13.8 kmh NE 8.4 mph13.5 kmh 29.79 in1008.8 mb 0.00 in0.0 mm 0.00 in0.0 mm 0.43 in10.9 mm
09:40 PM 43.9°F6.6°C 35.1°F1.7°C 71% 3.0 mph NE4.8 kmh NE 4.9 mph7.9 kmh 29.78 in1008.5 mb 0.00 in0.0 mm 0.00 in0.0 mm 0.43 in10.9 mm
09:50 PM 42.8°F6.0°C 34.4°F1.3°C 72% 1.3 mph SSE2.1 kmh SSE 2.5 mph4.0 kmh 29.78 in1008.5 mb 0.00 in0.0 mm 0.00 in0.0 mm 0.43 in10.9 mm
10:00 PM 41.9°F5.5°C 33.9°F1.1°C 73% 2.0 mph E3.2 kmh E 3.4 mph5.5 kmh 29.78 in1008.5 mb 0.00 in0.0 mm 0.00 in0.0 mm 0.43 in10.9 mm
10:10 PM 41.4°F5.2°C 34.0°F1.1°C 75% 3.1 mph SE5.0 kmh SE 5.9 mph9.5 kmh 29.78 in1008.5 mb 0.00 in0.0 mm 0.00 in0.0 mm 0.43 in10.9 mm
10:20 PM 41.0°F5.0°C 34.0°F1.1°C 76% 2.2 mph SE3.5 kmh SE 5.9 mph9.5 kmh 29.78 in1008.5 mb 0.00 in0.0 mm 0.00 in0.0 mm 0.43 in10.9 mm
10:30 PM 41.0°F5.0°C 34.7°F1.5°C 78% 2.1 mph ENE3.4 kmh ENE 4.2 mph6.8 kmh 29.78 in1008.5 mb 0.00 in0.0 mm 0.00 in0.0 mm 0.43 in10.9 mm
10:40 PM 40.8°F4.9°C 34.8°F1.6°C 79% 2.7 mph SE4.3 kmh SE 3.4 mph5.5 kmh 29.78 in1008.5 mb 0.00 in0.0 mm 0.00 in0.0 mm 0.43 in10.9 mm
10:50 PM 41.0°F5.0°C 35.3°F1.8°C 80% 1.9 mph ENE3.1 kmh ENE 3.4 mph5.5 kmh 29.78 in1008.5 mb 0.00 in0.0 mm 0.00 in0.0 mm 0.43 in10.9 mm
11:00 PM 40.8°F4.9°C 35.1°F1.7°C 80% 1.5 mph SSE2.4 kmh SSE 2.5 mph4.0 kmh 29.78 in1008.5 mb 0.00 in0.0 mm 0.00 in0.0 mm 0.43 in10.9 mm
11:10 PM 40.5°F4.7°C 34.8°F1.6°C 80% 2.7 mph E4.3 kmh E 3.4 mph5.5 kmh 29.78 in1008.5 mb 0.00 in0.0 mm 0.00 in0.0 mm 0.43 in10.9 mm
11:20 PM 40.3°F4.6°C 34.6°F1.4°C 80% 2.3 mph N3.7 kmh N 3.4 mph5.5 kmh 29.79 in1008.8 mb 0.00 in0.0 mm 0.00 in0.0 mm 0.43 in10.9 mm
11:30 PM 40.1°F4.5°C 34.4°F1.3°C 80% 2.3 mph SSW3.7 kmh SSW 4.2 mph6.8 kmh 29.79 in1008.8 mb 0.00 in0.0 mm 0.00 in0.0 mm 0.43 in10.9 mm
11:40 PM 39.7°F4.3°C 34.1°F1.2°C 80% 1.5 mph SW2.4 kmh SW 2.5 mph4.0 kmh 29.79 in1008.8 mb 0.00 in0.0 mm 0.00 in0.0 mm 0.43 in10.9 mm
11:50 PM 38.7°F3.7°C 33.0°F0.6°C 80% 2.5 mph SW4.0 kmh SW 5.9 mph9.5 kmh 29.80 in1009.1 mb 0.00 in0.0 mm 0.00 in0.0 mm 0.43 in10.9 mm